Time;durP1;ratioP1;P1;durP2;ratioP2;P2;SDS_P1;SDS_P2;PMS_P1;PMS_P2;Temp;Humidity;BMP_temperature;BMP_pressure;BME280_temperature;BME280_humidity;BME280_pressure;Samples;Min_cycle;Max_cycle;Signal;HPM_P1;HPM_P2
2023/08/19 00:01:12;;;;;;;1.80;1.70;;;;;;;23.18;nan;100290.34;4985226;28;20142;-77
2023/08/19 00:03:37;;;;;;;1.50;1.40;;;;;;;23.19;nan;100293.81;4996040;28;20104;-78
2023/08/19 00:06:08;;;;;;;1.40;1.40;;;;;;;23.17;nan;100290.47;4980498;28;20064;-78
2023/08/19 00:08:34;;;;;;;1.40;1.30;;;;;;;23.18;nan;100293.00;4983921;28;20034;-78
2023/08/19 00:11:00;;;;;;;1.58;1.48;;;;;;;23.18;nan;100298.28;4968415;28;20041;-78
2023/08/19 00:13:25;;;;;;;1.23;1.20;;;;;;;23.18;nan;100289.50;4993773;28;20029;-78
2023/08/19 00:15:51;;;;;;;1.30;1.30;;;;;;;23.18;nan;100298.28;4993743;28;20025;-78
2023/08/19 00:18:16;;;;;;;1.33;1.23;;;;;;;23.17;nan;100288.66;4985218;28;20038;-78
2023/08/19 00:20:42;;;;;;;1.50;1.40;;;;;;;23.19;nan;100292.00;4985580;28;20034;-78
2023/08/19 00:23:07;;;;;;;1.63;1.52;;;;;;;23.19;nan;100291.19;4987115;28;20034;-78
2023/08/19 00:25:33;;;;;;;1.33;1.27;;;;;;;23.18;nan;100292.16;4994776;28;20050;-78
2023/08/19 00:27:59;;;;;;;1.70;1.60;;;;;;;23.18;nan;100286.84;4983283;28;20083;-78
2023/08/19 00:30:25;;;;;;;1.35;1.30;;;;;;;23.19;nan;100285.88;4983645;28;20037;-78
2023/08/19 00:32:50;;;;;;;1.75;1.65;;;;;;;23.19;nan;100291.19;4988237;28;20117;-79
2023/08/19 00:35:16;;;;;;;1.50;1.40;;;;;;;23.18;nan;100286.84;4986984;28;20034;-78
2023/08/19 00:37:41;;;;;;;1.50;1.40;;;;;;;23.19;nan;100283.22;4967523;28;20061;-78
2023/08/19 00:40:13;;;;;;;1.67;1.58;;;;;;;23.19;nan;100283.22;4984514;28;20050;-78
2023/08/19 00:42:39;;;;;;;1.20;1.20;;;;;;;23.19;nan;100288.53;4988746;28;20029;-78
2023/08/19 00:45:05;;;;;;;1.17;1.17;;;;;;;23.18;nan;100282.41;4989367;28;20068;-78
2023/08/19 00:47:30;;;;;;;1.38;1.30;;;;;;;23.18;nan;100287.69;4983497;28;20038;-78
2023/08/19 00:49:56;;;;;;;1.48;1.40;;;;;;;23.19;nan;100277.94;4984048;28;20058;-78
2023/08/19 00:52:21;;;;;;;1.50;1.40;;;;;;;23.18;nan;100282.41;4970642;28;20034;-78
2023/08/19 00:54:47;;;;;;;1.58;1.48;;;;;;;23.18;nan;100290.34;4986003;28;20046;-79
2023/08/19 00:57:12;;;;;;;1.45;1.38;;;;;;;23.19;nan;100286.72;4982719;28;20129;-79
2023/08/19 00:59:38;;;;;;;1.30;1.30;;;;;;;23.18;nan;100286.84;4983907;28;20205;-78
2023/08/19 01:02:04;;;;;;;1.52;1.42;;;;;;;23.20;nan;100295.50;4983355;28;20030;-79
2023/08/19 01:04:29;;;;;;;1.75;1.23;;;;;;;23.20;nan;100287.56;4988876;28;20048;-78
2023/08/19 01:07:28;;;;;;;1.38;1.27;;;;;;;23.19;nan;100289.38;4986630;28;20026;-78
2023/08/19 01:10:03;;;;;;;1.40;1.30;;;;;;;23.20;nan;100279.59;4984000;28;20038;-78
2023/08/19 01:12:38;;;;;;;1.30;1.25;;;;;;;23.20;nan;100284.91;4987597;28;20045;-79
2023/08/19 01:15:21;;;;;;;1.55;1.45;;;;;;;23.21;nan;100283.94;4991198;28;20112;-78
2023/08/19 01:17:48;;;;;;;1.40;1.30;;;;;;;23.19;nan;100285.88;4982724;28;20157;-78
2023/08/19 01:20:14;;;;;;;1.27;1.23;;;;;;;23.19;nan;100286.72;4982269;28;20040;-78
2023/08/19 01:22:52;;;;;;;1.20;1.20;;;;;;;23.20;nan;100282.25;4980834;28;20026;-78
2023/08/19 01:25:18;;;;;;;1.20;1.20;;;;;;;23.20;nan;100282.25;4983400;28;20054;-78
2023/08/19 01:31:05;;;;;;;1.42;1.30;;;;;;;23.19;nan;100277.94;4982853;28;20551;-78
2023/08/19 01:33:31;;;;;;;1.27;1.27;;;;;;;23.20;nan;100276.94;4994397;28;20649;-78
2023/08/19 01:36:11;;;;;;;1.40;1.30;;;;;;;23.20;nan;100277.81;4984123;28;20664;-78
2023/08/19 01:38:43;;;;;;;1.50;1.40;;;;;;;23.20;nan;100274.31;4982805;28;20541;-78
2023/08/19 01:41:09;;;;;;;1.40;1.30;;;;;;;23.20;nan;100271.66;4983501;28;20034;-78
2023/08/19 01:43:35;;;;;;;1.48;1.38;;;;;;;23.19;nan;100275.28;4993287;28;20037;-78
2023/08/19 01:46:00;;;;;;;1.50;1.40;;;;;;;23.20;nan;100274.31;4987568;28;20486;-78
2023/08/19 01:48:25;;;;;;;1.45;1.35;;;;;;;23.20;nan;100269.88;4981450;28;20096;-78
2023/08/19 01:50:51;;;;;;;1.40;1.30;;;;;;;23.20;nan;100276.94;4981051;28;20401;-78
2023/08/19 01:53:19;;;;;;;1.20;1.20;;;;;;;23.20;nan;100267.22;4981703;28;20065;-78
2023/08/19 01:55:44;;;;;;;1.52;1.42;;;;;;;23.19;nan;100268.19;4982671;28;20608;-78
2023/08/19 01:58:10;;;;;;;1.30;1.30;;;;;;;23.19;nan;100262.88;4982087;28;20030;-78
2023/08/19 02:00:35;;;;;;;1.48;1.38;;;;;;;23.20;nan;100269.00;4981633;28;20989;-78
2023/08/19 02:03:00;;;;;;;1.25;1.25;;;;;;;23.20;nan;100274.31;4983554;28;20065;-78
2023/08/19 02:05:26;;;;;;;1.60;1.50;;;;;;;23.20;nan;100272.53;4986139;28;20030;-78
2023/08/19 02:07:51;;;;;;;1.38;1.27;;;;;;;23.20;nan;100266.34;4980652;28;20030;-78
2023/08/19 02:10:16;;;;;;;1.25;1.25;;;;;;;23.20;nan;100275.16;4980216;28;20046;-78
2023/08/19 02:12:42;;;;;;;1.40;1.40;;;;;;;23.21;nan;100273.34;4983347;28;20034;-77
2023/08/19 02:18:29;;;;;;;1.50;1.40;;;;;;;23.20;nan;100284.91;4980551;28;20042;-78
2023/08/19 02:20:54;;;;;;;1.30;1.30;;;;;;;23.21;nan;100289.25;4980066;28;20439;-78
2023/08/19 02:23:20;;;;;;;1.38;1.27;;;;;;;23.21;nan;100291.91;4978121;28;20795;-78
2023/08/19 02:25:45;;;;;;;1.40;1.40;;;;;;;23.20;nan;100296.38;4983341;28;20050;-78
2023/08/19 02:28:10;;;;;;;1.60;1.50;;;;;;;23.20;nan;100299.00;4980733;28;20062;-78
2023/08/19 02:30:36;;;;;;;1.30;1.20;;;;;;;23.21;nan;100294.53;4980867;28;20846;-78
2023/08/19 02:33:05;;;;;;;1.33;1.30;;;;;;;23.20;nan;100296.38;4980977;28;20823;-78
2023/08/19 02:35:31;;;;;;;1.45;1.40;;;;;;;23.22;nan;100293.56;4984476;28;20576;-78
2023/08/19 02:37:56;;;;;;;1.50;1.40;;;;;;;23.21;nan;100297.19;4981348;28;20129;-78
2023/08/19 02:40:21;;;;;;;1.15;1.00;;;;;;;23.21;nan;100297.19;4981877;28;20475;-78
2023/08/19 02:42:47;;;;;;;1.30;1.20;;;;;;;23.20;nan;100293.72;4968618;28;20478;-78
2023/08/19 02:45:12;;;;;;;1.30;1.20;;;;;;;23.21;nan;100305.16;4992414;28;20553;-79
2023/08/19 02:47:37;;;;;;;1.02;1.02;;;;;;;23.21;nan;100297.19;4981942;28;20053;-78
2023/08/19 02:50:03;;;;;;;1.00;1.00;;;;;;;23.21;nan;100302.50;4983123;28;20034;-78
2023/08/19 02:52:28;;;;;;;1.27;1.27;;;;;;;23.22;nan;100298.88;4980135;28;20034;-78
2023/08/19 02:54:54;;;;;;;1.20;1.20;;;;;;;23.21;nan;100297.19;4977418;28;20621;-78
2023/08/19 02:57:19;;;;;;;1.30;1.30;;;;;;;23.21;nan;100302.50;4964591;28;20057;-78
2023/08/19 02:59:44;;;;;;;1.10;1.10;;;;;;;23.22;nan;100306.81;4982363;28;20081;-78
2023/08/19 03:02:10;;;;;;;1.30;1.20;;;;;;;23.20;nan;100306.97;4981294;28;20465;-78
2023/08/19 03:04:35;;;;;;;1.20;1.20;;;;;;;23.22;nan;100309.47;4975907;28;20610;-78
2023/08/19 03:07:01;;;;;;;1.42;1.33;;;;;;;23.22;nan;100306.81;4980254;28;20034;-78
2023/08/19 03:09:26;;;;;;;1.08;1.08;;;;;;;23.22;nan;100301.50;4979026;28;20044;-78
2023/08/19 03:11:53;;;;;;;1.10;1.10;;;;;;;23.21;nan;100310.44;4979407;28;20041;-78
2023/08/19 03:14:18;;;;;;;1.60;1.50;;;;;;;23.21;nan;100305.97;4977069;28;20041;-78
2023/08/19 03:16:44;;;;;;;1.60;1.50;;;;;;;23.21;nan;100310.44;4984869;28;20058;-77
2023/08/19 03:19:09;;;;;;;1.20;1.20;;;;;;;23.21;nan;100305.16;4979748;28;20068;-78
2023/08/19 03:21:34;;;;;;;1.20;1.20;;;;;;;23.21;nan;100308.63;4980206;28;20104;-78
2023/08/19 03:24:00;;;;;;;1.10;1.10;;;;;;;23.21;nan;100307.78;4991538;28;20479;-78
2023/08/19 03:26:25;;;;;;;1.20;1.20;;;;;;;23.22;nan;100301.50;4985296;28;20034;-78
2023/08/19 03:28:50;;;;;;;1.13;1.10;;;;;;;23.22;nan;100309.47;4986143;28;20057;-78
2023/08/19 03:31:16;;;;;;;1.52;1.42;;;;;;;23.21;nan;100300.69;4983936;28;21427;-77
2023/08/19 03:33:41;;;;;;;1.13;1.10;;;;;;;23.21;nan;100294.53;4987045;28;20373;-78
2023/08/19 03:36:07;;;;;;;1.13;1.13;;;;;;;23.21;nan;100300.69;4965120;28;20030;-78
2023/08/19 03:38:32;;;;;;;1.40;1.30;;;;;;;23.21;nan;100303.31;4985307;28;20775;-78
2023/08/19 03:40:57;;;;;;;1.10;1.10;;;;;;;23.21;nan;100294.53;4983989;28;20555;-79
2023/08/19 03:43:23;;;;;;;1.40;1.40;;;;;;;23.21;nan;100295.38;4985349;28;20026;-78
2023/08/19 03:45:48;;;;;;;1.00;1.00;;;;;;;23.21;nan;100295.38;4993503;28;20397;-78
2023/08/19 03:48:13;;;;;;;1.20;1.20;;;;;;;23.21;nan;100300.69;4985329;28;20057;-78
2023/08/19 03:50:39;;;;;;;1.10;1.10;;;;;;;23.22;nan;100301.50;4985304;28;20042;-78
2023/08/19 03:53:04;;;;;;;1.50;1.40;;;;;;;23.22;nan;100302.34;4981257;28;20037;-78
2023/08/19 03:55:30;;;;;;;1.13;1.13;;;;;;;23.22;nan;100298.88;4983233;28;20951;-78
2023/08/19 03:57:55;;;;;;;1.10;1.10;;;;;;;23.21;nan;100298.03;4968939;28;20049;-78
2023/08/19 04:00:21;;;;;;;1.10;1.10;;;;;;;23.21;nan;100289.25;4983730;28;20038;-78
2023/08/19 04:02:46;;;;;;;1.27;1.25;;;;;;;23.22;nan;100304.16;4990440;28;20057;-78
2023/08/19 04:05:12;;;;;;;1.10;1.10;;;;;;;23.21;nan;100298.03;4989731;28;20084;-77
2023/08/19 04:07:37;;;;;;;1.05;1.05;;;;;;;23.22;nan;100298.88;4983757;28;20133;-77
2023/08/19 04:10:04;;;;;;;1.40;1.30;;;;;;;23.22;nan;100304.16;4983893;28;20041;-77
2023/08/19 04:12:29;;;;;;;1.20;1.20;;;;;;;23.22;nan;100310.28;4990282;28;20485;-77
2023/08/19 04:14:55;;;;;;;1.20;1.20;;;;;;;23.22;nan;100304.16;4988901;28;20037;-77
2023/08/19 04:17:20;;;;;;;1.42;1.33;;;;;;;23.23;nan;100303.19;4984609;28;20164;-77
2023/08/19 04:19:46;;;;;;;1.20;1.20;;;;;;;23.22;nan;100299.69;4983317;28;20092;-77
2023/08/19 04:22:15;;;;;;;1.20;1.20;;;;;;;23.22;nan;100306.81;4981902;28;20537;-77
2023/08/19 04:24:40;;;;;;;;;;;;;;;23.21;nan;100300.69;4962337;28;20093;-77
2023/08/19 04:27:06;;;;;;;1.13;1.13;;;;;;;23.22;nan;100306.81;4982687;28;20415;-78
2023/08/19 04:29:34;;;;;;;1.30;1.30;;;;;;;23.22;nan;100317.41;4981406;28;20038;-77
2023/08/19 04:32:03;;;;;;;1.08;1.08;;;;;;;23.22;nan;100320.06;4985050;28;20040;-78
2023/08/19 04:34:29;;;;;;;1.50;1.40;;;;;;;23.22;nan;100323.53;4983499;28;20034;-78
2023/08/19 04:36:55;;;;;;;1.20;1.20;;;;;;;23.22;nan;100328.84;4984644;28;20034;-77
2023/08/19 04:39:21;;;;;;;1.45;1.38;;;;;;;23.22;nan;100325.34;4965873;28;20117;-77
2023/08/19 04:41:46;;;;;;;1.13;1.13;;;;;;;23.21;nan;100323.69;4981619;28;20037;-77
2023/08/19 04:44:12;;;;;;;1.27;1.27;;;;;;;23.21;nan;100321.03;4982248;28;20044;-77
2023/08/19 04:46:37;;;;;;;1.10;1.10;;;;;;;23.22;nan;100320.06;4986802;28;20497;-77
2023/08/19 04:49:03;;;;;;;1.40;1.30;;;;;;;23.22;nan;100320.06;4984033;28;20210;-77
2023/08/19 04:51:28;;;;;;;1.10;1.10;;;;;;;23.22;nan;100320.06;4983007;28;20088;-77
2023/08/19 04:53:53;;;;;;;1.30;1.20;;;;;;;23.21;nan;100328.97;4977983;28;20026;-77
2023/08/19 04:56:19;;;;;;;1.27;1.20;;;;;;;23.21;nan;100321.88;4981405;28;20029;-77
2023/08/19 04:58:44;;;;;;;1.08;1.08;;;;;;;23.22;nan;100325.34;4965789;28;20857;-77
2023/08/19 05:01:10;;;;;;;1.00;1.00;;;;;;;23.22;nan;100328.00;4983641;28;20125;-77
2023/08/19 05:03:35;;;;;;;1.40;1.35;;;;;;;23.22;nan;100333.31;4991258;28;20123;-76
2023/08/19 05:06:01;;;;;;;1.35;1.25;;;;;;;23.21;nan;100335.13;4978608;28;20053;-77
2023/08/19 05:08:26;;;;;;;1.20;1.20;;;;;;;23.21;nan;100328.97;4982796;28;20072;-77
2023/08/19 05:10:52;;;;;;;1.40;1.35;;;;;;;23.22;nan;100339.44;4983237;28;20030;-77
2023/08/19 05:13:18;;;;;;;1.30;1.30;;;;;;;23.22;nan;100343.91;4970228;28;20034;-77
2023/08/19 05:15:43;;;;;;;1.20;1.20;;;;;;;23.22;nan;100339.44;4979199;28;20022;-76
2023/08/19 05:18:08;;;;;;;1.50;1.40;;;;;;;23.22;nan;100349.19;4981525;28;20200;-77
2023/08/19 05:20:34;;;;;;;1.23;1.15;;;;;;;23.22;nan;100349.19;4983441;28;20033;-78
2023/08/19 05:22:59;;;;;;;1.10;1.10;;;;;;;23.21;nan;100343.06;4983691;28;20133;-77
2023/08/19 05:25:24;;;;;;;1.20;1.20;;;;;;;23.23;nan;100345.56;4989275;28;20129;-78
2023/08/19 05:27:50;;;;;;;1.33;1.23;;;;;;;23.21;nan;100347.53;4980821;28;21381;-77
2023/08/19 05:30:15;;;;;;;1.10;1.10;;;;;;;23.22;nan;100362.44;4982325;28;20786;-77
2023/08/19 05:32:40;;;;;;;1.20;1.20;;;;;;;23.21;nan;100361.59;4985739;28;20132;-77
2023/08/19 05:35:06;;;;;;;1.25;1.23;;;;;;;23.23;nan;100369.41;4987444;28;20408;-77
2023/08/19 05:37:31;;;;;;;1.20;1.20;;;;;;;23.22;nan;100368.56;4983387;28;20100;-77
2023/08/19 05:39:57;;;;;;;1.30;1.30;;;;;;;23.22;nan;100367.72;4982039;28;20673;-77
2023/08/19 05:42:22;;;;;;;1.40;1.30;;;;;;;23.22;nan;100373.88;4980232;28;20089;-77
2023/08/19 05:44:47;;;;;;;0.80;0.80;;;;;;;23.22;nan;100375.69;4986153;28;20066;-78
2023/08/19 05:47:14;;;;;;;1.38;1.30;;;;;;;23.22;nan;100373.03;4982070;28;20084;-77
2023/08/19 05:49:39;;;;;;;1.00;1.00;;;;;;;23.22;nan;100378.31;4983909;28;20110;-78
2023/08/19 05:52:04;;;;;;;1.20;1.20;;;;;;;23.22;nan;100379.16;4982983;28;20267;-78
2023/08/19 05:54:33;;;;;;;1.23;1.20;;;;;;;23.22;nan;100381.81;4986199;28;20044;-78
2023/08/19 05:56:58;;;;;;;1.10;1.10;;;;;;;23.23;nan;100382.66;4983251;28;20504;-77
2023/08/19 05:59:23;;;;;;;1.15;1.15;;;;;;;23.22;nan;100379.16;4982133;28;20149;-78
2023/08/19 06:01:49;;;;;;;1.20;1.17;;;;;;;23.22;nan;100373.88;4983272;28;20038;-77
2023/08/19 06:04:15;;;;;;;1.10;1.10;;;;;;;23.23;nan;100377.34;4978609;28;20042;-77
2023/08/19 06:06:41;;;;;;;1.25;1.25;;;;;;;23.22;nan;100376.50;4986301;28;20100;-77
2023/08/19 06:09:09;;;;;;;1.20;1.20;;;;;;;23.22;nan;100381.81;4981443;28;20116;-77
2023/08/19 06:11:46;;;;;;;1.15;1.15;;;;;;;23.22;nan;100379.16;4983719;28;20037;-78
2023/08/19 06:14:11;;;;;;;1.23;1.23;;;;;;;23.22;nan;100384.47;4992104;28;20041;-77
2023/08/19 06:16:37;;;;;;;1.30;1.20;;;;;;;23.22;nan;100383.63;4970064;28;20065;-76
2023/08/19 06:19:02;;;;;;;1.30;1.20;;;;;;;23.22;nan;100389.75;4982398;28;20096;-77
2023/08/19 06:21:28;;;;;;;1.30;1.30;;;;;;;23.23;nan;100391.44;4984008;28;20030;-77
2023/08/19 06:23:53;;;;;;;1.10;1.10;;;;;;;23.23;nan;100395.88;4976748;28;20692;-77
2023/08/19 06:26:18;;;;;;;1.20;1.20;;;;;;;23.23;nan;100406.47;4989422;28;20049;-77
2023/08/19 06:28:44;;;;;;;1.48;1.38;;;;;;;23.23;nan;100422.38;4982004;28;20038;-77
2023/08/19 06:31:09;;;;;;;1.20;1.20;;;;;;;23.24;nan;100424.06;4981994;28;20031;-77
2023/08/19 06:33:35;;;;;;;1.17;1.10;;;;;;;23.25;nan;100436.31;4990471;28;20049;-78
2023/08/19 06:36:00;;;;;;;1.20;1.20;;;;;;;23.23;nan;100436.44;4981711;28;20045;-76
2023/08/19 06:38:27;;;;;;;0.98;0.98;;;;;;;23.24;nan;100434.66;4965342;28;20037;-77
2023/08/19 06:40:55;;;;;;;1.17;1.08;;;;;;;23.24;nan;100434.66;4982325;28;20032;-77
2023/08/19 06:43:24;;;;;;;1.48;1.38;;;;;;;23.24;nan;100434.66;4986598;28;20064;-77
2023/08/19 06:45:49;;;;;;;1.30;1.20;;;;;;;23.24;nan;100438.13;4989362;28;20759;-77
2023/08/19 06:48:15;;;;;;;1.00;1.00;;;;;;;23.24;nan;100435.47;4982246;28;20034;-77
2023/08/19 06:50:41;;;;;;;1.48;1.40;;;;;;;23.25;nan;100436.31;4981893;28;20034;-77
2023/08/19 06:53:10;;;;;;;1.00;1.00;;;;;;;23.24;nan;100434.66;4982277;28;20553;-77
2023/08/19 06:55:38;;;;;;;1.42;1.33;;;;;;;23.24;nan;100435.47;4991765;28;20105;-78
2023/08/19 06:58:08;;;;;;;1.00;1.00;;;;;;;23.25;nan;100433.66;4984884;28;20034;-77
2023/08/19 07:00:33;;;;;;;1.30;1.20;;;;;;;23.26;nan;100432.72;4985241;28;20041;-77
2023/08/19 07:02:59;;;;;;;1.17;1.17;;;;;;;23.25;nan;100438.97;4966781;28;20390;-78
2023/08/19 07:05:26;;;;;;;1.15;1.15;;;;;;;23.26;nan;100443.31;4984365;28;20073;-78
2023/08/19 07:07:52;;;;;;;1.10;1.08;;;;;;;23.26;nan;100438.03;4969666;28;20033;-78
2023/08/19 07:10:20;;;;;;;1.02;1.02;;;;;;;23.26;nan;100438.84;4984667;28;20396;-78
2023/08/19 07:12:46;;;;;;;1.17;1.17;;;;;;;23.26;nan;100446.81;4966765;28;20141;-78
2023/08/19 07:15:12;;;;;;;1.10;1.10;;;;;;;23.25;nan;100442.44;4979190;28;20042;-77
2023/08/19 07:17:44;;;;;;;1.10;1.10;;;;;;;23.25;nan;100437.16;4985944;28;20033;-78
2023/08/19 07:20:13;;;;;;;1.27;1.27;;;;;;;23.26;nan;100438.03;4967857;28;20034;-77
2023/08/19 07:22:38;;;;;;;1.02;1.02;;;;;;;23.26;nan;100441.50;4990013;28;20033;-78
2023/08/19 07:25:05;;;;;;;1.25;1.25;;;;;;;23.25;nan;100437.16;4995079;28;20046;-77
2023/08/19 07:27:31;;;;;;;1.23;1.23;;;;;;;23.26;nan;100448.63;4985579;28;20038;-78
2023/08/19 07:29:57;;;;;;;1.25;1.15;;;;;;;23.27;nan;100450.28;4983856;28;20539;-76
2023/08/19 07:32:23;;;;;;;1.15;1.15;;;;;;;23.27;nan;100461.72;4986989;28;20545;-77
2023/08/19 07:34:48;;;;;;;1.27;1.27;;;;;;;23.27;nan;100460.88;4980732;28;20478;-77
2023/08/19 07:37:13;;;;;;;1.38;1.38;;;;;;;23.27;nan;100464.38;4984831;28;20131;-77
2023/08/19 07:39:39;;;;;;;1.17;1.17;;;;;;;23.27;nan;100458.22;4984879;28;20825;-77
2023/08/19 07:42:04;;;;;;;1.00;1.00;;;;;;;23.26;nan;100465.34;4983745;28;20555;-78
2023/08/19 07:44:30;;;;;;;1.15;1.10;;;;;;;23.27;nan;100468.81;4993803;28;20044;-77
2023/08/19 07:46:55;;;;;;;1.10;1.10;;;;;;;23.27;nan;100466.19;4983009;28;20763;-77
2023/08/19 07:49:20;;;;;;;1.20;1.20;;;;;;;23.27;nan;100467.03;4984629;28;20042;-78
2023/08/19 07:51:46;;;;;;;1.10;1.10;;;;;;;23.28;nan;100470.50;4983139;28;20030;-77
2023/08/19 07:54:11;;;;;;;1.13;1.13;;;;;;;23.27;nan;100456.41;4985094;28;20932;-78
2023/08/19 07:56:37;;;;;;;1.23;1.20;;;;;;;23.28;nan;100446.66;4989563;28;20064;-78
2023/08/19 07:59:03;;;;;;;1.10;1.10;;;;;;;23.27;nan;100448.47;4984988;28;20748;-77
2023/08/19 08:01:28;;;;;;;1.00;1.00;;;;;;;23.27;nan;100451.13;4984606;28;20825;-77
2023/08/19 08:03:54;;;;;;;1.13;1.02;;;;;;;23.29;nan;100469.53;4978942;28;20112;-77
2023/08/19 08:06:19;;;;;;;1.20;1.20;;;;;;;23.28;nan;100466.03;4987932;28;20847;-77
2023/08/19 08:08:44;;;;;;;1.50;1.40;;;;;;;23.29;nan;100474.81;4983212;28;20066;-77
2023/08/19 08:11:10;;;;;;;1.20;1.20;;;;;;;23.29;nan;100469.53;4984595;28;20394;-78
2023/08/19 08:13:35;;;;;;;1.17;1.17;;;;;;;23.29;nan;100464.22;4980869;28;20030;-78
2023/08/19 08:16:00;;;;;;;1.33;1.23;;;;;;;23.30;nan;100465.91;4981297;28;20028;-78
2023/08/19 08:18:26;;;;;;;0.98;0.98;;;;;;;23.30;nan;100471.19;4984867;28;20030;-77
2023/08/19 08:20:51;;;;;;;1.45;1.20;;;;;;;23.31;nan;100466.72;4985096;28;20034;-78
2023/08/19 08:23:16;;;;;;;1.20;1.20;;;;;;;23.30;nan;100471.19;4988607;28;20036;-78
2023/08/19 08:25:42;;;;;;;1.20;1.10;;;;;;;23.30;nan;100468.56;4992721;28;20058;-77
2023/08/19 08:28:07;;;;;;;1.10;1.10;;;;;;;23.30;nan;100463.25;4985346;28;20037;-78
2023/08/19 08:30:32;;;;;;;1.35;1.35;;;;;;;23.31;nan;100464.94;4985792;28;20038;-78
2023/08/19 08:32:58;;;;;;;1.50;1.40;;;;;;;23.31;nan;100462.28;4992329;28;20051;-77
2023/08/19 08:35:23;;;;;;;1.40;1.30;;;;;;;23.32;nan;100469.28;4985878;28;20409;-78
2023/08/19 08:37:49;;;;;;;1.08;1.08;;;;;;;23.31;nan;100464.94;4985292;28;20045;-77
2023/08/19 08:40:14;;;;;;;1.27;1.17;;;;;;;23.33;nan;100462.16;4983845;28;20456;-77
2023/08/19 08:42:40;;;;;;;1.40;1.30;;;;;;;23.32;nan;100463.97;4982265;28;20038;-77
2023/08/19 08:45:09;;;;;;;1.10;1.10;;;;;;;23.32;nan;100463.97;4989242;28;20034;-78
2023/08/19 08:47:35;;;;;;;1.13;1.13;;;;;;;23.33;nan;100470.94;4983334;28;20033;-77
2023/08/19 08:50:00;;;;;;;1.33;1.23;;;;;;;23.33;nan;100460.34;4983768;28;20038;-78
2023/08/19 08:52:26;;;;;;;1.38;1.30;;;;;;;23.34;nan;100471.78;4982992;28;20093;-77
2023/08/19 08:54:52;;;;;;;1.27;1.23;;;;;;;23.33;nan;100470.13;4979083;28;20037;-78
2023/08/19 08:57:17;;;;;;;1.10;1.10;;;;;;;23.33;nan;100464.81;4983343;28;20088;-78
2023/08/19 08:59:43;;;;;;;1.35;1.25;;;;;;;23.33;nan;100473.59;4983960;28;20102;-77
2023/08/19 09:02:11;;;;;;;1.00;1.00;;;;;;;23.34;nan;100471.78;4981579;28;20483;-78
2023/08/19 09:04:38;;;;;;;1.08;1.08;;;;;;;23.33;nan;100476.25;4989765;28;20101;-78
2023/08/19 09:07:09;;;;;;;1.02;1.02;;;;;;;23.34;nan;100477.91;4985726;28;20033;-77
2023/08/19 09:09:36;;;;;;;1.10;1.10;;;;;;;23.33;nan;100470.94;4964867;28;20026;-78
2023/08/19 09:12:04;;;;;;;1.08;1.08;;;;;;;23.34;nan;100469.97;4983006;28;20034;-77
2023/08/19 09:14:42;;;;;;;1.20;1.20;;;;;;;23.35;nan;100466.34;4976727;28;20081;-78
2023/08/19 09:17:08;;;;;;;1.50;1.50;;;;;;;23.34;nan;100467.31;4982757;28;20034;-77
2023/08/19 09:19:35;;;;;;;1.40;1.30;;;;;;;23.35;nan;100461.03;4983818;28;20438;-77
2023/08/19 09:22:18;;;;;;;1.50;1.50;;;;;;;23.35;nan;100469.00;4982270;28;20176;-78
2023/08/19 09:24:44;;;;;;;1.00;1.00;;;;;;;23.36;nan;100477.78;4978001;28;20049;-77
2023/08/19 09:27:09;;;;;;;1.08;1.08;;;;;;;23.34;nan;100469.97;4980935;28;20390;-78
2023/08/19 09:29:35;;;;;;;1.20;1.20;;;;;;;23.35;nan;100473.47;4983996;28;20037;-78
2023/08/19 09:32:01;;;;;;;1.17;1.17;;;;;;;23.35;nan;100469.00;4985131;28;20116;-77
2023/08/19 09:34:26;;;;;;;1.20;1.20;;;;;;;23.35;nan;100469.00;4994850;28;20044;-78
2023/08/19 09:36:56;;;;;;;1.30;1.30;;;;;;;23.35;nan;100469.00;4986672;28;20558;-78
2023/08/19 09:39:25;;;;;;;1.25;1.25;;;;;;;23.36;nan;100459.22;4981908;28;20129;-78
2023/08/19 09:41:56;;;;;;;1.15;1.15;;;;;;;23.37;nan;100458.25;4984022;28;20034;-78
2023/08/19 09:44:21;;;;;;;1.17;1.17;;;;;;;23.36;nan;100460.06;4977563;28;20382;-77
2023/08/19 09:46:47;;;;;;;1.50;1.40;;;;;;;23.35;nan;100463.69;4981843;28;20041;-78
2023/08/19 09:49:20;;;;;;;1.48;1.38;;;;;;;23.36;nan;100454.78;4983293;28;20297;-78
2023/08/19 09:51:52;;;;;;;1.30;1.30;;;;;;;23.37;nan;100455.59;4965280;28;20105;-78
2023/08/19 09:54:17;;;;;;;1.25;1.20;;;;;;;23.37;nan;100456.47;4995188;28;20041;-78
2023/08/19 09:56:52;;;;;;;1.50;1.40;;;;;;;23.37;nan;100456.47;4984068;28;20033;-78
2023/08/19 09:59:18;;;;;;;1.40;1.30;;;;;;;23.38;nan;100459.97;4981176;28;20857;-78
2023/08/19 10:01:43;;;;;;;1.52;1.42;;;;;;;23.37;nan;100461.78;4982028;28;20030;-78
2023/08/19 10:04:09;;;;;;;1.20;1.20;;;;;;;23.38;nan;100462.59;4986916;28;20041;-79
2023/08/19 10:06:38;;;;;;;1.60;1.50;;;;;;;23.38;nan;100474.03;4987006;28;20132;-78
2023/08/19 10:09:04;;;;;;;;;;;;;;;23.38;nan;100482.00;4983190;28;20038;-78
2023/08/19 10:11:31;;;;;;;1.30;1.30;;;;;;;23.38;nan;100484.66;4983898;28;19928;-79
2023/08/19 10:14:02;;;;;;;1.42;1.33;;;;;;;23.38;nan;100484.66;4986611;28;20492;-78
2023/08/19 10:16:32;;;;;;;1.35;1.25;;;;;;;23.38;nan;100474.03;4980664;28;20034;-79
2023/08/19 10:18:58;;;;;;;1.30;1.30;;;;;;;23.38;nan;100483.81;4982133;28;20478;-78
2023/08/19 10:21:24;;;;;;;1.45;1.35;;;;;;;23.38;nan;100487.28;4982490;28;20713;-78
2023/08/19 10:23:50;;;;;;;1.40;1.40;;;;;;;23.38;nan;100486.47;4978315;28;20033;-79
2023/08/19 10:26:17;;;;;;;1.50;1.40;;;;;;;23.39;nan;100496.91;4979703;28;20055;-79
2023/08/19 10:29:00;;;;;;;1.65;1.55;;;;;;;23.38;nan;100503.19;4984066;28;20030;-78
2023/08/19 10:31:27;;;;;;;1.45;1.35;;;;;;;23.39;nan;100502.22;4983191;28;20112;-79
2023/08/19 10:33:53;;;;;;;1.50;1.40;;;;;;;23.39;nan;100507.50;4995822;28;20026;-78
2023/08/19 10:36:19;;;;;;;1.20;1.20;;;;;;;23.39;nan;100502.22;4986867;28;20030;-78
2023/08/19 10:38:48;;;;;;;1.35;1.35;;;;;;;23.39;nan;100504.88;4986094;28;20026;-77
2023/08/19 10:41:18;;;;;;;;;;;;;;;23.39;nan;100504.88;4984521;28;20482;-77
2023/08/19 10:44:01;;;;;;;;;;;;;;;23.41;nan;100507.38;4997890;28;19917;-78
2023/08/19 10:46:37;;;;;;;1.40;1.40;;;;;;;23.40;nan;100503.03;4991981;28;19922;-79
2023/08/19 10:49:04;;;;;;;1.08;1.08;;;;;;;23.40;nan;100503.88;4969282;28;20121;-78
2023/08/19 10:51:53;;;;;;;1.40;1.30;;;;;;;23.40;nan;100509.19;4984612;28;20501;-77
2023/08/19 10:54:38;;;;;;;1.58;1.40;;;;;;;23.39;nan;100510.16;4978851;28;20034;-77
2023/08/19 10:57:12;;;;;;;1.20;1.20;;;;;;;23.41;nan;100512.66;4986029;28;20141;-77
2023/08/19 10:59:41;;;;;;;1.55;1.48;;;;;;;23.41;nan;100505.56;4985178;28;20036;-78
2023/08/19 11:02:08;;;;;;;1.20;1.20;;;;;;;23.41;nan;100507.38;4983467;28;20081;-78
2023/08/19 11:04:34;;;;;;;1.50;1.40;;;;;;;23.41;nan;100497.59;4964113;28;20434;-78
2023/08/19 11:07:00;;;;;;;1.70;1.60;;;;;;;23.40;nan;100500.41;4989028;28;20060;-78
2023/08/19 11:09:26;;;;;;;1.38;1.38;;;;;;;23.41;nan;100497.59;4986265;28;20883;-79
2023/08/19 11:11:54;;;;;;;1.50;1.40;;;;;;;23.41;nan;100500.25;4987307;28;20030;-78
2023/08/19 11:14:20;;;;;;;1.55;1.45;;;;;;;23.41;nan;100500.25;4981612;28;20941;-78
2023/08/19 11:16:48;;;;;;;1.63;1.52;;;;;;;23.42;nan;100509.03;4985040;28;20038;-77
2023/08/19 11:19:14;;;;;;;1.10;1.10;;;;;;;23.41;nan;100510.84;4986970;28;20037;-78
2023/08/19 11:21:42;;;;;;;1.38;1.35;;;;;;;23.42;nan;100507.22;4985619;28;20843;-77
2023/08/19 11:24:08;;;;;;;1.43;1.40;;;;;;;23.42;nan;100506.41;4990731;28;20680;-77
2023/08/19 11:26:35;;;;;;;1.30;1.20;;;;;;;23.42;nan;100509.88;4989686;28;21343;-78
2023/08/19 11:29:04;;;;;;;1.38;1.20;;;;;;;23.42;nan;100509.88;4985913;28;20026;-77
2023/08/19 11:31:29;;;;;;;1.67;1.58;;;;;;;23.42;nan;100511.69;4983505;28;20037;-78
2023/08/19 11:33:54;;;;;;;1.40;1.30;;;;;;;23.44;nan;100515.06;4985229;28;20034;-78
2023/08/19 11:36:24;;;;;;;1.50;1.40;;;;;;;23.43;nan;100508.09;4982718;28;20030;-78
2023/08/19 11:38:54;;;;;;;1.45;1.38;;;;;;;23.43;nan;100518.69;4985997;28;20049;-77
2023/08/19 11:41:19;;;;;;;1.60;1.50;;;;;;;23.43;nan;100524.00;4985208;28;20034;-77
2023/08/19 11:43:45;;;;;;;1.45;1.35;;;;;;;23.44;nan;100526.50;4978644;28;20068;-77
2023/08/19 11:46:11;;;;;;;1.52;1.42;;;;;;;23.44;nan;100520.38;4985618;28;20034;-78
2023/08/19 11:48:37;;;;;;;1.33;1.33;;;;;;;23.43;nan;100521.34;4986047;28;20158;-77